Weather at Las Clavellinas Airport

Public forecast

Using degrees Celsius for public forecast. Weather courtesy of forecast.io.

Closest aviation weather report (METAR) to Las Clavellinas Airport

Closest report is Dr. Antonio Nicolás Briceño Airport, 23.2 nm (42.9 km) E.

2024/07/25 19:03 (retrieved 51 minutes ago)

SVVL 251903Z AUTO ///01KT NCD ///// Q////

Closest aviation forecast (TAF) to Las Clavellinas Airport

Closest forecast is La Chinita International Airport, 86.4 nm (160.0 km) NNW.

2024/07/25 18:24 (retrieved 2 hours ago)

TAF SVMC 251600Z 2518/2618 18009KT 9999 SCT016 TX35/2518Z TN24/2607Z TEMPO 2518/2522 15005KT 9999 SCT020 SCT080